Time;durP1;ratioP1;P1;durP2;ratioP2;P2;SDS_P1;SDS_P2;PMS_P1;PMS_P2;Temp;Humidity;BMP_temperature;BMP_pressure;BME280_temperature;BME280_humidity;BME280_pressure;Samples;Min_cycle;Max_cycle;Signal;HPM_P1;HPM_P2
2021/12/12 00:01:40;;;;;;;3.60;2.15;;;;;;;;;;5043868;28;20056;-79
2021/12/12 00:04:13;;;;;;;3.55;2.20;;;;;;;;;;5047167;28;22197;-79
2021/12/12 00:06:47;;;;;;;3.30;2.20;;;;;;;;;;5046881;28;20057;-81
2021/12/12 00:09:20;;;;;;;2.70;1.67;;;;;;;;;;5042277;28;20060;-79
2021/12/12 00:11:47;;;;;;;2.83;1.63;;;;;;;;;;5051921;28;20060;-78
2021/12/12 00:14:34;;;;;;;2.88;1.90;;;;;;;;;;5047295;28;20602;-78
2021/12/12 00:17:00;;;;;;;3.10;1.90;;;;;;;;;;5046709;28;21919;-78
2021/12/12 00:19:27;;;;;;;3.47;1.98;;;;;;;;;;5044551;28;20131;-82
2021/12/12 00:21:58;;;;;;;3.63;2.00;;;;;;;;;;5040550;28;20110;-79
2021/12/12 00:24:25;;;;;;;3.38;2.30;;;;;;;;;;5045100;28;20083;-80
2021/12/12 00:26:52;;;;;;;3.38;2.20;;;;;;;;;;5046575;28;20113;-79
2021/12/12 00:29:20;;;;;;;3.03;2.08;;;;;;;;;;5047324;28;20053;-80
2021/12/12 00:31:48;;;;;;;4.25;2.05;;;;;;;;;;5049304;28;20069;-79
2021/12/12 00:34:14;;;;;;;3.00;1.92;;;;;;;;;;5049253;28;20118;-80
2021/12/12 00:36:41;;;;;;;4.07;2.25;;;;;;;;;;5045365;28;20068;-80
2021/12/12 00:39:27;;;;;;;3.47;1.85;;;;;;;;;;5046921;28;20091;-80
2021/12/12 00:42:03;;;;;;;3.40;1.90;;;;;;;;;;5044349;28;20343;-79
2021/12/12 00:44:31;;;;;;;3.05;2.20;;;;;;;;;;5044683;28;20068;-80
2021/12/12 00:46:58;;;;;;;3.78;2.30;;;;;;;;;;5047191;28;20130;-82
2021/12/12 00:49:43;;;;;;;3.15;2.00;;;;;;;;;;5032580;28;20752;-81
2021/12/12 00:52:12;;;;;;;4.45;2.40;;;;;;;;;;5045232;28;20574;-78
2021/12/12 00:54:39;;;;;;;2.83;1.77;;;;;;;;;;5040849;28;20056;-80
2021/12/12 00:57:11;;;;;;;4.00;2.10;;;;;;;;;;5047230;28;20061;-80
2021/12/12 00:59:37;;;;;;;4.10;2.63;;;;;;;;;;5045981;28;20103;-80
2021/12/12 01:02:06;;;;;;;3.78;2.08;;;;;;;;;;5044109;28;20056;-80
2021/12/12 01:04:34;;;;;;;3.47;2.13;;;;;;;;;;5048107;28;20061;-79
2021/12/12 01:07:12;;;;;;;3.67;2.17;;;;;;;;;;5051312;28;20040;-79
2021/12/12 01:09:41;;;;;;;4.35;2.40;;;;;;;;;;5046653;28;20068;-79
2021/12/12 01:12:10;;;;;;;3.60;2.28;;;;;;;;;;5048034;28;20067;-79
2021/12/12 01:14:43;;;;;;;3.47;2.03;;;;;;;;;;5044307;28;20507;-79
2021/12/12 01:17:18;;;;;;;4.07;2.20;;;;;;;;;;5039935;28;20029;-78
2021/12/12 01:19:53;;;;;;;3.90;2.55;;;;;;;;;;5047960;28;20091;-78
2021/12/12 01:22:25;;;;;;;4.95;2.33;;;;;;;;;;5044149;28;20451;-78
2021/12/12 01:24:57;;;;;;;3.58;2.15;;;;;;;;;;5044899;28;20033;-80
2021/12/12 01:27:24;;;;;;;4.10;2.20;;;;;;;;;;5044214;28;20481;-79
2021/12/12 01:29:51;;;;;;;4.10;2.25;;;;;;;;;;5055987;28;20664;-82
2021/12/12 01:32:27;;;;;;;4.28;2.60;;;;;;;;;;5056210;28;20028;-77
2021/12/12 01:34:55;;;;;;;4.22;2.33;;;;;;;;;;5050279;28;20822;-77
2021/12/12 01:39:50;;;;;;;3.72;2.50;;;;;;;;;;5056319;28;20041;-79
2021/12/12 01:42:22;;;;;;;4.85;2.83;;;;;;;;;;5051965;28;20037;-79
2021/12/12 01:44:54;;;;;;;5.30;2.85;;;;;;;;;;5051517;28;20860;-81
2021/12/12 01:47:33;;;;;;;3.63;2.38;;;;;;;;;;5049578;28;20102;-82
2021/12/12 01:50:02;;;;;;;4.13;2.47;;;;;;;;;;5047253;28;21311;-82
2021/12/12 01:52:29;;;;;;;4.80;2.38;;;;;;;;;;5046288;28;20067;-79
2021/12/12 01:55:07;;;;;;;4.65;2.42;;;;;;;;;;5042410;28;20072;-78
2021/12/12 01:57:36;;;;;;;3.75;2.60;;;;;;;;;;5048413;28;20091;-79
2021/12/12 02:00:09;;;;;;;3.78;2.30;;;;;;;;;;5045991;28;20195;-80
2021/12/12 02:02:36;;;;;;;3.85;2.33;;;;;;;;;;5058834;28;20057;-79
2021/12/12 02:05:09;;;;;;;3.55;2.17;;;;;;;;;;5049678;28;20146;-80
2021/12/12 02:07:37;;;;;;;3.90;2.47;;;;;;;;;;5044350;28;20064;-80
2021/12/12 02:10:10;;;;;;;4.43;2.78;;;;;;;;;;5045933;28;20102;-80
2021/12/12 02:12:36;;;;;;;5.03;2.58;;;;;;;;;;5043813;28;20130;-82
2021/12/12 02:15:03;;;;;;;4.05;2.70;;;;;;;;;;5048085;28;20569;-80
2021/12/12 02:17:36;;;;;;;4.20;2.28;;;;;;;;;;5047540;28;20059;-80
2021/12/12 02:20:23;;;;;;;4.13;2.50;;;;;;;;;;5047148;28;20130;-79
2021/12/12 02:36:24;;;;;;;4.70;2.47;;;;;;;;;;5045839;28;20190;-78
2021/12/12 02:38:52;;;;;;;3.83;2.15;;;;;;;;;;5044133;28;20512;-81
2021/12/12 02:41:19;;;;;;;3.63;2.40;;;;;;;;;;5044524;28;20060;-79
2021/12/12 02:43:48;;;;;;;3.80;2.17;;;;;;;;;;5041349;28;20033;-79
2021/12/12 02:46:18;;;;;;;3.72;2.25;;;;;;;;;;5046107;28;20077;-78
2021/12/12 02:48:45;;;;;;;3.90;2.20;;;;;;;;;;5045704;28;20082;-79
2021/12/12 02:51:15;;;;;;;3.95;2.10;;;;;;;;;;5045963;28;20049;-79
2021/12/12 02:53:46;;;;;;;4.60;2.47;;;;;;;;;;5036763;28;20066;-79
2021/12/12 02:56:13;;;;;;;;;;;;;;;;;;5041115;28;20562;-78
2021/12/12 02:58:40;;;;;;;3.50;2.03;;;;;;;;;;5039882;28;20021;-78
2021/12/12 03:01:12;;;;;;;4.43;2.67;;;;;;;;;;5043256;28;20492;-78
2021/12/12 03:03:39;;;;;;;4.57;2.42;;;;;;;;;;5040291;28;20442;-79
2021/12/12 03:06:07;;;;;;;3.90;2.35;;;;;;;;;;5042776;28;20044;-79
2021/12/12 03:08:34;;;;;;;4.05;2.40;;;;;;;;;;5041749;28;20052;-78
2021/12/12 03:11:01;;;;;;;3.90;2.40;;;;;;;;;;5044907;28;20068;-78
2021/12/12 03:13:27;;;;;;;3.45;1.77;;;;;;;;;;5047084;28;20068;-78
2021/12/12 03:15:54;;;;;;;4.20;2.28;;;;;;;;;;5044085;28;20138;-80
2021/12/12 03:18:23;;;;;;;3.13;2.10;;;;;;;;;;5043367;28;20065;-78
2021/12/12 03:20:51;;;;;;;4.22;2.70;;;;;;;;;;5040729;28;20057;-80
2021/12/12 03:23:44;;;;;;;3.80;1.95;;;;;;;;;;5045202;28;21129;-80
2021/12/12 03:26:11;;;;;;;4.68;2.60;;;;;;;;;;5056366;28;20988;-81
2021/12/12 03:28:41;;;;;;;4.93;2.45;;;;;;;;;;5061140;28;20118;-81
2021/12/12 03:31:09;;;;;;;3.33;2.03;;;;;;;;;;5061432;28;20085;-81
2021/12/12 03:33:36;;;;;;;3.70;2.25;;;;;;;;;;5063135;28;20068;-80
2021/12/12 03:36:06;;;;;;;3.47;2.38;;;;;;;;;;5060169;28;20052;-78
2021/12/12 03:38:33;;;;;;;4.63;2.42;;;;;;;;;;5064080;28;20499;-80
2021/12/12 03:41:02;;;;;;;4.05;2.20;;;;;;;;;;5068631;28;20146;-80
2021/12/12 03:43:30;;;;;;;3.90;1.95;;;;;;;;;;5047601;28;20056;-79
2021/12/12 03:45:57;;;;;;;3.92;2.30;;;;;;;;;;5065227;28;20079;-78
2021/12/12 03:48:28;;;;;;;3.53;2.17;;;;;;;;;;5062773;28;20082;-78
2021/12/12 03:50:57;;;;;;;3.22;1.90;;;;;;;;;;5065995;28;20064;-80
2021/12/12 03:53:25;;;;;;;3.67;2.10;;;;;;;;;;5063397;28;20089;-79
2021/12/12 03:55:52;;;;;;;3.33;1.95;;;;;;;;;;5063766;28;20056;-79
2021/12/12 03:58:18;;;;;;;3.15;1.85;;;;;;;;;;5064288;28;20537;-79
2021/12/12 04:00:45;;;;;;;3.00;1.98;;;;;;;;;;5042655;28;20058;-80
2021/12/12 04:03:12;;;;;;;4.10;2.03;;;;;;;;;;5060161;28;20133;-80
2021/12/12 04:05:39;;;;;;;4.63;2.15;;;;;;;;;;5067228;28;20060;-83
2021/12/12 04:08:06;;;;;;;3.22;1.80;;;;;;;;;;5068100;28;20060;-79
2021/12/12 04:10:32;;;;;;;3.45;1.80;;;;;;;;;;5068141;28;20052;-80
2021/12/12 04:12:59;;;;;;;3.78;2.05;;;;;;;;;;5050589;28;20055;-78
2021/12/12 04:15:26;;;;;;;4.05;1.92;;;;;;;;;;5069930;28;20044;-79
2021/12/12 04:17:52;;;;;;;3.53;2.28;;;;;;;;;;5070755;28;20560;-79
2021/12/12 04:20:21;;;;;;;2.83;1.80;;;;;;;;;;5063941;28;20842;-78
2021/12/12 04:22:48;;;;;;;3.78;1.83;;;;;;;;;;5069159;28;20060;-79
2021/12/12 04:25:15;;;;;;;2.88;1.80;;;;;;;;;;5071912;28;20460;-78
2021/12/12 04:27:41;;;;;;;3.40;1.83;;;;;;;;;;5065127;28;20056;-79
2021/12/12 04:30:11;;;;;;;2.72;1.63;;;;;;;;;;5065660;28;20059;-78
2021/12/12 04:32:41;;;;;;;2.75;1.80;;;;;;;;;;5066809;28;20060;-79
2021/12/12 04:35:09;;;;;;;2.75;1.60;;;;;;;;;;5065752;28;20060;-80
2021/12/12 04:37:36;;;;;;;3.80;2.35;;;;;;;;;;5066929;28;20067;-79
2021/12/12 04:40:03;;;;;;;3.05;2.08;;;;;;;;;;5065208;28;20098;-78
2021/12/12 04:42:31;;;;;;;3.05;1.90;;;;;;;;;;5070151;28;20122;-79
2021/12/12 04:45:16;;;;;;;3.05;1.60;;;;;;;;;;5062242;28;20056;-78
2021/12/12 04:51:13;;;;;;;3.00;1.95;;;;;;;;;;4983733;28;20042;-79
2021/12/12 04:53:47;;;;;;;3.80;2.05;;;;;;;;;;4982787;28;20140;-79
2021/12/12 04:56:18;;;;;;;2.78;1.73;;;;;;;;;;5032253;28;20068;-80
2021/12/12 04:58:57;;;;;;;3.70;1.88;;;;;;;;;;5075887;28;20041;-79
2021/12/12 05:01:26;;;;;;;2.70;1.95;;;;;;;;;;5076891;28;20066;-78
2021/12/12 05:03:57;;;;;;;2.95;1.80;;;;;;;;;;5088049;28;20033;-80
2021/12/12 05:06:49;;;;;;;3.28;2.00;;;;;;;;;;5087227;28;20126;-79
2021/12/12 05:09:24;;;;;;;3.35;2.17;;;;;;;;;;5040658;28;20032;-78
2021/12/12 05:12:02;;;;;;;2.88;1.90;;;;;;;;;;5071720;28;20012;-78
2021/12/12 05:14:33;;;;;;;3.08;1.60;;;;;;;;;;5087005;28;20423;-79
2021/12/12 05:17:09;;;;;;;2.97;1.73;;;;;;;;;;5092954;28;20025;-78
2021/12/12 05:19:37;;;;;;;3.22;1.80;;;;;;;;;;5068253;28;20426;-79
2021/12/12 05:22:10;;;;;;;2.80;1.90;;;;;;;;;;5089371;28;20047;-79
2021/12/12 05:24:38;;;;;;;3.35;1.95;;;;;;;;;;5064594;28;20032;-79
2021/12/12 05:27:06;;;;;;;2.63;1.63;;;;;;;;;;5098469;28;20033;-78
2021/12/12 05:29:40;;;;;;;4.30;1.80;;;;;;;;;;5071984;28;20037;-78
2021/12/12 05:32:08;;;;;;;2.47;1.67;;;;;;;;;;5074303;28;20039;-79
2021/12/12 05:34:39;;;;;;;2.40;1.65;;;;;;;;;;5071574;28;20064;-81
2021/12/12 05:37:06;;;;;;;3.00;1.73;;;;;;;;;;5068319;28;20157;-79
2021/12/12 05:39:33;;;;;;;3.15;1.90;;;;;;;;;;5071993;28;20116;-82
2021/12/12 05:42:00;;;;;;;3.05;1.80;;;;;;;;;;5071942;28;20063;-82
2021/12/12 05:44:28;;;;;;;2.38;1.65;;;;;;;;;;5066632;28;20131;-77
2021/12/12 05:46:55;;;;;;;3.17;1.48;;;;;;;;;;5054010;28;20063;-79
2021/12/12 05:49:22;;;;;;;3.17;1.70;;;;;;;;;;5072238;28;20025;-78
2021/12/12 05:51:48;;;;;;;3.05;1.70;;;;;;;;;;5069736;28;20060;-79
2021/12/12 05:54:15;;;;;;;2.58;1.50;;;;;;;;;;5072755;28;20117;-82
2021/12/12 05:56:42;;;;;;;2.75;1.50;;;;;;;;;;5065936;28;20183;-80
2021/12/12 05:59:10;;;;;;;3.67;1.90;;;;;;;;;;5067904;28;20068;-81
2021/12/12 06:01:38;;;;;;;3.40;2.05;;;;;;;;;;5056175;28;20079;-79
2021/12/12 06:04:05;;;;;;;3.05;1.80;;;;;;;;;;5064965;28;20085;-79
2021/12/12 06:06:33;;;;;;;3.65;1.60;;;;;;;;;;5063974;28;20087;-79
2021/12/12 06:09:01;;;;;;;3.65;1.83;;;;;;;;;;5065992;28;20056;-78
2021/12/12 06:11:29;;;;;;;2.72;1.60;;;;;;;;;;5046799;28;20671;-78
2021/12/12 06:13:56;;;;;;;2.17;1.58;;;;;;;;;;5073025;28;20109;-79
2021/12/12 06:16:23;;;;;;;2.30;1.52;;;;;;;;;;5064730;28;20135;-78
2021/12/12 06:18:56;;;;;;;2.67;1.80;;;;;;;;;;5065631;28;21871;-80
2021/12/12 06:21:22;;;;;;;2.97;1.90;;;;;;;;;;5043006;28;20586;-77
2021/12/12 06:23:49;;;;;;;3.03;1.88;;;;;;;;;;5060310;28;21610;-77
2021/12/12 06:26:18;;;;;;;3.10;1.85;;;;;;;;;;5064159;28;20508;-78
2021/12/12 06:28:47;;;;;;;2.28;1.60;;;;;;;;;;5038444;28;20479;-78
2021/12/12 06:31:14;;;;;;;2.50;1.50;;;;;;;;;;5040997;28;20501;-78
2021/12/12 06:33:41;;;;;;;2.70;1.50;;;;;;;;;;5049189;28;20607;-78
2021/12/12 06:36:08;;;;;;;2.92;1.88;;;;;;;;;;5061765;28;20063;-78
2021/12/12 06:38:35;;;;;;;2.63;1.60;;;;;;;;;;5062595;28;20105;-77
2021/12/12 06:41:02;;;;;;;2.70;1.60;;;;;;;;;;5065199;28;20060;-78
2021/12/12 06:43:29;;;;;;;2.50;1.65;;;;;;;;;;5063945;28;20118;-78
2021/12/12 06:45:55;;;;;;;2.67;1.73;;;;;;;;;;5064880;28;20048;-79
2021/12/12 06:48:22;;;;;;;2.55;1.42;;;;;;;;;;5044984;28;20067;-79
2021/12/12 06:50:50;;;;;;;2.30;1.45;;;;;;;;;;5043357;28;20056;-79
2021/12/12 06:53:18;;;;;;;2.55;1.67;;;;;;;;;;5064820;28;20064;-80
2021/12/12 06:55:46;;;;;;;2.63;1.52;;;;;;;;;;5060630;28;20068;-79
2021/12/12 06:58:14;;;;;;;2.70;1.63;;;;;;;;;;5069972;28;20471;-80
2021/12/12 07:00:41;;;;;;;2.55;1.60;;;;;;;;;;5047846;28;20060;-79
2021/12/12 07:03:07;;;;;;;2.92;1.83;;;;;;;;;;5065878;28;20114;-80
2021/12/12 07:05:34;;;;;;;3.40;1.67;;;;;;;;;;5061564;28;20056;-79
2021/12/12 07:08:03;;;;;;;2.65;1.83;;;;;;;;;;5063876;28;20071;-80
2021/12/12 07:10:30;;;;;;;3.42;2.08;;;;;;;;;;5062592;28;20082;-78
2021/12/12 07:12:57;;;;;;;2.22;1.42;;;;;;;;;;5062571;28;20061;-79
2021/12/12 07:15:26;;;;;;;3.35;1.92;;;;;;;;;;5023371;28;20126;-79
2021/12/12 07:17:54;;;;;;;2.70;1.45;;;;;;;;;;5047586;28;20060;-79
2021/12/12 07:20:20;;;;;;;2.40;1.50;;;;;;;;;;5066105;28;20073;-78
2021/12/12 07:22:47;;;;;;;2.47;1.35;;;;;;;;;;5064799;28;20122;-77
2021/12/12 07:25:14;;;;;;;3.65;1.63;;;;;;;;;;5065180;28;20064;-79
2021/12/12 07:27:41;;;;;;;2.60;1.63;;;;;;;;;;5060421;28;20056;-79
2021/12/12 07:30:08;;;;;;;3.22;1.65;;;;;;;;;;5062513;28;20203;-80
2021/12/12 07:32:37;;;;;;;3.35;1.90;;;;;;;;;;5063573;28;20076;-79
2021/12/12 07:35:06;;;;;;;2.60;1.73;;;;;;;;;;5066954;28;20100;-81
2021/12/12 07:37:33;;;;;;;2.70;1.70;;;;;;;;;;5064429;28;20060;-79
2021/12/12 07:39:59;;;;;;;3.78;1.70;;;;;;;;;;5067695;28;20098;-80
2021/12/12 07:42:26;;;;;;;2.50;1.50;;;;;;;;;;5064863;28;20097;-79
2021/12/12 07:44:53;;;;;;;3.15;1.85;;;;;;;;;;5065981;28;20036;-78
2021/12/12 07:47:20;;;;;;;2.90;1.60;;;;;;;;;;5048754;28;20055;-79
2021/12/12 07:49:48;;;;;;;2.92;1.48;;;;;;;;;;5063998;28;20064;-79
2021/12/12 07:52:16;;;;;;;2.67;1.50;;;;;;;;;;5041891;28;20086;-79
2021/12/12 07:54:43;;;;;;;2.55;1.42;;;;;;;;;;5063652;28;20133;-79
2021/12/12 07:57:09;;;;;;;3.03;1.73;;;;;;;;;;5067818;28;20052;-80
2021/12/12 07:59:37;;;;;;;2.92;1.77;;;;;;;;;;5065417;28;20087;-77
2021/12/12 08:02:05;;;;;;;2.60;1.63;;;;;;;;;;5066330;28;20097;-78
2021/12/12 08:04:32;;;;;;;2.70;1.67;;;;;;;;;;5064023;28;20060;-78
2021/12/12 08:07:00;;;;;;;2.85;1.55;;;;;;;;;;5067443;28;20056;-81
2021/12/12 08:09:27;;;;;;;2.60;1.60;;;;;;;;;;5072598;28;20129;-82
2021/12/12 08:11:53;;;;;;;3.13;1.83;;;;;;;;;;5051236;28;20093;-82
2021/12/12 08:14:22;;;;;;;2.47;1.50;;;;;;;;;;5053166;28;20048;-77
2021/12/12 08:16:50;;;;;;;3.58;1.60;;;;;;;;;;5067465;28;20147;-78
2021/12/12 08:19:18;;;;;;;3.30;1.63;;;;;;;;;;5049517;28;20277;-77
2021/12/12 08:21:45;;;;;;;4.25;1.80;;;;;;;;;;5065073;28;21174;-78
2021/12/12 08:24:13;;;;;;;3.03;1.45;;;;;;;;;;5064187;28;20074;-78
2021/12/12 08:26:41;;;;;;;6.05;2.10;;;;;;;;;;5066025;28;20074;-79
2021/12/12 08:29:08;;;;;;;6.32;2.05;;;;;;;;;;5065099;28;20504;-79
2021/12/12 08:31:35;;;;;;;3.35;2.10;;;;;;;;;;5062825;28;20064;-78
2021/12/12 08:34:02;;;;;;;3.05;1.67;;;;;;;;;;5065579;28;21557;-78
2021/12/12 08:36:30;;;;;;;3.25;2.25;;;;;;;;;;5065035;28;20090;-78
2021/12/12 08:38:57;;;;;;;3.63;2.13;;;;;;;;;;5066409;28;20064;-79
2021/12/12 08:41:23;;;;;;;3.60;1.90;;;;;;;;;;5047572;28;20083;-80
2021/12/12 08:43:50;;;;;;;4.00;1.95;;;;;;;;;;5063492;28;22338;-79
2021/12/12 08:46:17;;;;;;;4.20;2.00;;;;;;;;;;5065207;28;20076;-79
2021/12/12 08:48:46;;;;;;;3.40;1.92;;;;;;;;;;5064325;28;20535;-79
2021/12/12 08:51:17;;;;;;;4.40;2.17;;;;;;;;;;5066601;28;20763;-78
2021/12/12 08:53:45;;;;;;;3.85;1.90;;;;;;;;;;5046475;28;20130;-79
2021/12/12 08:56:19;;;;;;;5.10;2.35;;;;;;;;;;5061923;28;20076;-79
2021/12/12 08:58:46;;;;;;;6.05;2.50;;;;;;;;;;5066399;28;20060;-78
2021/12/12 09:01:15;;;;;;;7.18;3.10;;;;;;;;;;5062876;28;20068;-79
2021/12/12 09:03:43;;;;;;;7.57;2.83;;;;;;;;;;5067417;28;20048;-78
2021/12/12 09:06:11;;;;;;;4.85;2.35;;;;;;;;;;5066046;28;20500;-78
2021/12/12 09:08:44;;;;;;;6.30;3.28;;;;;;;;;;5062585;28;20094;-78
2021/12/12 09:11:17;;;;;;;4.68;2.10;;;;;;;;;;5030687;28;20037;-79
2021/12/12 09:13:46;;;;;;;5.63;2.47;;;;;;;;;;5064280;28;20141;-79
2021/12/12 09:16:16;;;;;;;4.63;2.13;;;;;;;;;;5065785;28;20060;-78
2021/12/12 09:18:48;;;;;;;5.38;2.30;;;;;;;;;;5063771;28;20060;-78
2021/12/12 09:21:26;;;;;;;3.95;2.17;;;;;;;;;;5061063;28;20090;-79
2021/12/12 09:24:10;;;;;;;4.55;2.45;;;;;;;;;;5063398;28;20454;-79
2021/12/12 09:26:43;;;;;;;5.72;2.38;;;;;;;;;;5064650;28;20738;-78
2021/12/12 09:29:13;;;;;;;3.88;2.00;;;;;;;;;;5049209;28;20060;-78
2021/12/12 09:31:43;;;;;;;3.92;1.77;;;;;;;;;;5063129;28;20068;-78
2021/12/12 09:34:22;;;;;;;4.80;2.15;;;;;;;;;;5066839;28;20090;-78
2021/12/12 09:36:55;;;;;;;3.38;2.13;;;;;;;;;;5044876;28;20049;-79
2021/12/12 09:39:27;;;;;;;5.90;2.55;;;;;;;;;;5061599;28;20036;-77
2021/12/12 09:42:02;;;;;;;7.85;3.33;;;;;;;;;;5067138;28;20120;-79
2021/12/12 09:44:28;;;;;;;7.13;3.58;;;;;;;;;;5066099;28;20082;-78
2021/12/12 09:47:31;;;;;;;7.50;3.42;;;;;;;;;;5064876;28;20060;-80
2021/12/12 09:53:30;;;;;;;7.13;3.83;;;;;;;;;;5042068;28;22122;-79
2021/12/12 09:56:08;;;;;;;7.68;3.33;;;;;;;;;;5066045;28;22484;-77
2021/12/12 09:58:55;;;;;;;6.90;3.67;;;;;;;;;;5065016;28;20064;-77
2021/12/12 10:01:34;;;;;;;5.50;3.20;;;;;;;;;;5064699;28;20059;-78
2021/12/12 10:04:10;;;;;;;5.93;3.20;;;;;;;;;;5065611;28;20786;-78
2021/12/12 10:06:39;;;;;;;6.75;3.92;;;;;;;;;;5068880;28;20051;-78
2021/12/12 10:09:12;;;;;;;8.93;3.65;;;;;;;;;;5065960;28;20139;-78
2021/12/12 10:11:39;;;;;;;6.88;3.90;;;;;;;;;;5046166;28;20588;-78
2021/12/12 10:14:13;;;;;;;6.43;4.28;;;;;;;;;;5068721;28;20059;-79
2021/12/12 10:16:46;;;;;;;6.55;3.75;;;;;;;;;;5065470;28;20924;-79
2021/12/12 10:19:19;;;;;;;5.65;3.53;;;;;;;;;;5064925;28;20118;-80
2021/12/12 10:22:04;;;;;;;6.60;3.83;;;;;;;;;;5062297;28;20068;-77
2021/12/12 10:24:32;;;;;;;9.23;3.10;;;;;;;;;;5053056;28;20445;-77
2021/12/12 10:27:08;;;;;;;6.13;3.72;;;;;;;;;;5042856;28;20055;-78
2021/12/12 10:29:42;;;;;;;6.10;3.38;;;;;;;;;;5065706;28;20060;-78
2021/12/12 10:32:13;;;;;;;5.53;2.95;;;;;;;;;;5066847;28;20118;-77
2021/12/12 10:34:42;;;;;;;4.03;2.15;;;;;;;;;;5063820;28;20068;-77
2021/12/12 10:37:15;;;;;;;3.75;2.00;;;;;;;;;;5064007;28;20134;-78
2021/12/12 10:39:49;;;;;;;3.85;2.17;;;;;;;;;;5063971;28;20070;-77
2021/12/12 10:42:27;;;;;;;2.97;1.90;;;;;;;;;;5064311;28;20067;-77
2021/12/12 10:44:56;;;;;;;3.95;1.85;;;;;;;;;;5061376;28;21480;-77
2021/12/12 10:47:28;;;;;;;3.45;2.10;;;;;;;;;;5062927;28;20068;-78
2021/12/12 10:50:10;;;;;;;3.78;2.15;;;;;;;;;;5061232;28;20481;-76
2021/12/12 10:52:39;;;;;;;2.97;1.70;;;;;;;;;;5065260;28;20532;-77
2021/12/12 10:55:26;;;;;;;3.35;1.90;;;;;;;;;;5063769;28;20508;-78
2021/12/12 10:57:58;;;;;;;3.00;1.73;;;;;;;;;;5060600;28;21372;-77
2021/12/12 11:00:26;;;;;;;3.05;1.63;;;;;;;;;;5065357;28;20064;-82
2021/12/12 11:03:02;;;;;;;3.20;1.73;;;;;;;;;;5063596;28;20052;-77
2021/12/12 11:05:34;;;;;;;2.85;1.67;;;;;;;;;;5065155;28;20060;-76
2021/12/12 11:08:04;;;;;;;2.72;1.33;;;;;;;;;;5063484;28;20614;-76
2021/12/12 11:10:34;;;;;;;3.15;1.35;;;;;;;;;;5047947;28;20103;-75
2021/12/12 11:13:17;;;;;;;2.65;1.10;;;;;;;;;;5064656;28;20051;-76
2021/12/12 11:15:53;;;;;;;2.25;1.38;;;;;;;;;;5061630;28;20114;-76
2021/12/12 11:18:24;;;;;;;2.25;1.20;;;;;;;;;;5064417;28;20052;-75
2021/12/12 11:21:17;;;;;;;2.17;1.33;;;;;;;;;;5042852;28;20196;-77
2021/12/12 11:23:44;;;;;;;2.28;1.52;;;;;;;;;;5058968;28;20060;-75
2021/12/12 11:26:16;;;;;;;3.15;1.70;;;;;;;;;;5064174;28;20061;-76
2021/12/12 11:28:53;;;;;;;2.78;1.48;;;;;;;;;;5066487;28;20109;-75
2021/12/12 11:31:24;;;;;;;2.65;1.30;;;;;;;;;;5063010;28;20799;-75
2021/12/12 11:33:52;;;;;;;3.85;1.60;;;;;;;;;;5062740;28;20122;-75
2021/12/12 11:36:30;;;;;;;3.25;1.45;;;;;;;;;;5064621;28;20124;-76
2021/12/12 11:39:05;;;;;;;3.88;1.42;;;;;;;;;;5060366;28;20060;-75
2021/12/12 11:41:43;;;;;;;2.67;1.42;;;;;;;;;;5062331;28;20526;-76
2021/12/12 11:44:24;;;;;;;2.63;1.63;;;;;;;;;;5063922;28;20067;-75
2021/12/12 11:46:59;;;;;;;2.45;1.33;;;;;;;;;;5061057;28;20491;-76
2021/12/12 11:49:30;;;;;;;3.00;1.30;;;;;;;;;;5061304;28;20465;-76
2021/12/12 11:52:01;;;;;;;2.78;1.60;;;;;;;;;;5061749;28;20125;-76
2021/12/12 11:54:43;;;;;;;4.95;1.73;;;;;;;;;;5060549;28;20563;-75
2021/12/12 11:57:19;;;;;;;2.45;1.40;;;;;;;;;;5062438;28;20079;-76
2021/12/12 11:59:59;;;;;;;2.75;1.55;;;;;;;;;;5063154;28;20125;-75
2021/12/12 12:02:41;;;;;;;2.28;1.30;;;;;;;;;;5039289;28;20129;-76
2021/12/12 12:05:07;;;;;;;2.20;1.17;;;;;;;;;;5055164;28;20064;-76
2021/12/12 12:07:36;;;;;;;2.50;1.48;;;;;;;;;;5024652;28;20716;-74
2021/12/12 12:10:09;;;;;;;2.88;1.27;;;;;;;;;;5044322;28;20048;-75
2021/12/12 12:12:54;;;;;;;2.47;1.40;;;;;;;;;;5059957;28;20413;-77
2021/12/12 12:15:49;;;;;;;2.85;1.30;;;;;;;;;;5063658;28;20417;-76
2021/12/12 12:18:24;;;;;;;4.72;1.67;;;;;;;;;;5048765;28;20064;-78
2021/12/12 12:20:54;;;;;;;2.47;1.25;;;;;;;;;;5058072;28;20203;-75
2021/12/12 12:23:30;;;;;;;3.05;1.45;;;;;;;;;;5063062;28;20659;-77
2021/12/12 12:28:48;;;;;;;2.85;1.50;;;;;;;;;;5058182;28;20118;-77
2021/12/12 12:31:34;;;;;;;2.85;1.50;;;;;;;;;;5060050;28;21314;-78
2021/12/12 12:34:00;;;;;;;5.32;1.95;;;;;;;;;;5045306;28;20130;-81
2021/12/12 12:36:49;;;;;;;3.67;1.60;;;;;;;;;;5067293;28;20068;-84
2021/12/12 12:39:24;;;;;;;3.67;1.50;;;;;;;;;;5065852;28;20056;-79
2021/12/12 12:42:06;;;;;;;3.45;1.42;;;;;;;;;;5061934;28;20169;-79
2021/12/12 12:44:51;;;;;;;3.13;1.50;;;;;;;;;;5045933;28;20100;-79
2021/12/12 12:47:36;;;;;;;2.17;1.17;;;;;;;;;;5065589;28;20060;-79
2021/12/12 12:50:20;;;;;;;4.78;1.92;;;;;;;;;;5071433;28;22336;-80
2021/12/12 12:53:04;;;;;;;9.50;3.17;;;;;;;;;;5064817;28;20448;-79
2021/12/12 12:55:47;;;;;;;13.18;5.10;;;;;;;;;;5060771;28;20068;-80
2021/12/12 12:58:16;;;;;;;11.07;4.45;;;;;;;;;;5068127;28;20145;-79
2021/12/12 13:00:43;;;;;;;14.77;6.20;;;;;;;;;;5068397;28;20088;-79
2021/12/12 13:03:32;;;;;;;10.45;4.53;;;;;;;;;;5067706;28;20068;-80
2021/12/12 13:06:01;;;;;;;11.20;4.75;;;;;;;;;;5063320;28;21541;-79
2021/12/12 13:08:46;;;;;;;14.02;5.38;;;;;;;;;;5049875;28;20118;-80
2021/12/12 13:11:15;;;;;;;9.10;3.60;;;;;;;;;;5066567;28;20133;-80
2021/12/12 13:14:01;;;;;;;16.02;6.32;;;;;;;;;;5066247;28;20117;-79
2021/12/12 13:16:32;;;;;;;12.35;4.90;;;;;;;;;;5023660;28;20064;-80
2021/12/12 13:19:25;;;;;;;16.30;6.28;;;;;;;;;;5067406;28;20052;-83
2021/12/12 13:21:53;;;;;;;11.63;5.20;;;;;;;;;;5060011;28;21296;-76
2021/12/12 13:24:24;;;;;;;15.80;5.30;;;;;;;;;;5061235;28;20069;-77
2021/12/12 13:27:06;;;;;;;11.98;4.32;;;;;;;;;;5051634;28;21585;-76
2021/12/12 13:29:56;;;;;;;13.35;5.70;;;;;;;;;;5061637;28;20565;-77
2021/12/12 13:32:35;;;;;;;11.70;4.20;;;;;;;;;;5045783;28;20132;-76
2021/12/12 13:35:06;;;;;;;9.20;3.92;;;;;;;;;;5047980;28;22263;-77
2021/12/12 13:37:35;;;;;;;13.35;5.00;;;;;;;;;;5069052;28;20072;-77
2021/12/12 13:40:38;;;;;;;10.13;3.33;;;;;;;;;;5067303;28;20400;-76
2021/12/12 13:43:05;;;;;;;;;;;;;;;;;;4985588;28;21236;-76
2021/12/12 13:45:32;;;;;;;9.52;4.25;;;;;;;;;;5051400;28;20395;-75
2021/12/12 13:48:17;;;;;;;7.40;2.92;;;;;;;;;;5067208;28;20113;-77
2021/12/12 13:51:00;;;;;;;6.25;3.15;;;;;;;;;;5061927;28;20133;-78
2021/12/12 13:53:44;;;;;;;11.30;3.67;;;;;;;;;;5062581;28;20710;-78
2021/12/12 13:56:17;;;;;;;7.68;2.95;;;;;;;;;;4997153;28;20667;-78
2021/12/12 13:59:02;;;;;;;8.70;3.05;;;;;;;;;;5061939;28;20064;-76
2021/12/12 14:02:00;;;;;;;11.05;3.25;;;;;;;;;;5037021;28;20089;-78
2021/12/12 14:04:45;;;;;;;6.55;2.80;;;;;;;;;;4992854;28;20385;-78
2021/12/12 14:07:22;;;;;;;5.88;2.78;;;;;;;;;;5013798;28;20048;-78
2021/12/12 14:10:00;;;;;;;8.30;3.00;;;;;;;;;;5002404;28;20040;-77
2021/12/12 14:12:29;;;;;;;8.85;2.90;;;;;;;;;;5032160;28;20090;-77
2021/12/12 14:15:01;;;;;;;6.72;2.75;;;;;;;;;;5066512;28;20063;-77
2021/12/12 14:17:51;;;;;;;8.85;4.50;;;;;;;;;;5064090;28;20068;-78
2021/12/12 14:20:20;;;;;;;6.95;2.22;;;;;;;;;;5043712;28;20350;-76
2021/12/12 14:22:48;;;;;;;8.10;3.28;;;;;;;;;;5065371;28;20063;-76
2021/12/12 14:25:15;;;;;;;6.05;2.17;;;;;;;;;;5063571;28;20056;-77
2021/12/12 14:27:45;;;;;;;12.18;3.75;;;;;;;;;;5056786;28;20063;-77
2021/12/12 14:30:12;;;;;;;4.70;2.28;;;;;;;;;;5061175;28;20044;-77
2021/12/12 14:32:41;;;;;;;10.50;3.33;;;;;;;;;;5053218;28;20036;-78
2021/12/12 14:35:15;;;;;;;9.87;3.00;;;;;;;;;;5068542;28;20035;-77
2021/12/12 14:37:43;;;;;;;6.82;2.30;;;;;;;;;;5026048;28;20114;-80
2021/12/12 14:40:12;;;;;;;4.78;2.13;;;;;;;;;;5062560;28;20577;-77
2021/12/12 14:42:45;;;;;;;9.10;2.85;;;;;;;;;;5064680;28;20052;-77
2021/12/12 14:45:18;;;;;;;8.43;3.33;;;;;;;;;;5064834;28;20064;-77
2021/12/12 14:47:47;;;;;;;6.22;2.92;;;;;;;;;;5065786;28;20447;-77
2021/12/12 14:50:16;;;;;;;7.57;3.10;;;;;;;;;;5062813;28;20060;-77
2021/12/12 14:52:45;;;;;;;3.63;2.03;;;;;;;;;;5065539;28;20060;-77
2021/12/12 14:55:19;;;;;;;6.40;2.20;;;;;;;;;;5065324;28;20818;-76
2021/12/12 14:57:47;;;;;;;5.32;2.50;;;;;;;;;;5063062;28;20269;-76
2021/12/12 15:00:14;;;;;;;10.13;2.80;;;;;;;;;;5065155;28;20507;-76
2021/12/12 15:02:45;;;;;;;4.50;2.17;;;;;;;;;;5063691;28;20059;-77
2021/12/12 15:05:17;;;;;;;5.70;2.67;;;;;;;;;;5057111;28;20075;-78
2021/12/12 15:07:46;;;;;;;5.82;2.78;;;;;;;;;;5063712;28;21662;-76
2021/12/12 15:10:24;;;;;;;6.22;2.55;;;;;;;;;;5063297;28;20052;-77
2021/12/12 15:12:52;;;;;;;6.07;2.22;;;;;;;;;;5064011;28;20062;-76
2021/12/12 15:15:23;;;;;;;5.75;2.20;;;;;;;;;;5066003;28;20052;-75
2021/12/12 15:17:52;;;;;;;;;;;;;;;;;;5063439;28;20062;-77
2021/12/12 15:20:25;;;;;;;5.47;2.00;;;;;;;;;;5062566;28;20421;-75
2021/12/12 15:22:53;;;;;;;5.43;2.13;;;;;;;;;;5053094;28;20033;-77
2021/12/12 15:25:22;;;;;;;4.68;2.13;;;;;;;;;;5042448;28;20053;-77
2021/12/12 15:27:49;;;;;;;3.50;1.83;;;;;;;;;;5034539;28;20060;-76
2021/12/12 15:30:25;;;;;;;3.90;2.00;;;;;;;;;;5046027;28;20064;-76
2021/12/12 15:32:54;;;;;;;4.47;2.30;;;;;;;;;;5040294;28;20118;-75
2021/12/12 15:35:23;;;;;;;4.32;2.03;;;;;;;;;;5046822;28;20057;-76